Manton, California
Current Conditions -  °F | °C
As of 9:03 AM on Saturday 25 Oct 2014 (Local Time) from KRDD Reporting Station
Broken Clouds Broken Clouds  
Wind Chill: 59°   Ceiling: 1700
Heat Index: 59°   Visibility: 10mi
Dew Point: 55°   Wind: 24mph
Humidity: 87%   Direction: 170°S
Pressure: 29.83"   Gusts: 37mph
Location:  40.43°N, 121.87°W
Report Text: KRDD 251603Z 17021G32KT 10SM BKN017 15/13 A2983 RMK AO2 PK WND 16032/1555 T01500128
Loading
Personal Weather Stations






























Interactive Weather Map
Tropical Storm Tracking
New forecast layout! Learn more

10-Day Weather Forecast

Advertisements
Track Severe Weather on mobile